createdAt,value
2023-04-19T00:02:16.814Z,12.46
2023-04-19T00:04:47.753Z,12.32
2023-04-19T00:07:15.072Z,12.47
2023-04-19T00:09:42.303Z,12.62
2023-04-19T00:12:09.571Z,12.40
2023-04-19T00:14:36.831Z,12.41
2023-04-19T00:17:04.185Z,12.28
2023-04-19T00:19:31.490Z,12.42
2023-04-19T00:21:59.446Z,12.38
2023-04-19T00:24:26.773Z,12.43
2023-04-19T00:26:54.097Z,12.49
2023-04-19T00:29:21.427Z,12.44
2023-04-19T00:31:49.316Z,12.31
2023-04-19T00:34:16.962Z,12.40
2023-04-19T00:36:44.350Z,12.39
2023-04-19T00:39:13.671Z,12.38
2023-04-19T00:41:40.983Z,12.37
2023-04-19T00:44:08.427Z,12.25
2023-04-19T00:46:37.809Z,12.40
2023-04-19T00:49:05.360Z,12.24
2023-04-19T00:51:33.622Z,12.33
2023-04-19T00:54:03.097Z,12.30
2023-04-19T00:56:30.964Z,12.37
2023-04-19T00:58:59.202Z,12.61
2023-04-19T01:01:26.511Z,12.57
2023-04-19T01:03:54.046Z,12.54
2023-04-19T01:06:21.597Z,12.44
2023-04-19T01:08:49.341Z,12.50
2023-04-19T01:11:16.558Z,12.37
2023-04-19T01:13:45.530Z,12.50
2023-04-19T01:16:12.847Z,12.28
2023-04-19T01:18:40.825Z,12.39
2023-04-19T01:21:09.417Z,12.38
2023-04-19T01:23:38.957Z,12.39
2023-04-19T01:26:06.572Z,12.35
2023-04-19T01:28:33.838Z,12.30
2023-04-19T01:31:01.287Z,12.35
2023-04-19T01:33:28.493Z,12.14
2023-04-19T01:35:55.856Z,12.01
2023-04-19T01:38:23.216Z,12.03
2023-04-19T01:40:50.653Z,11.99
2023-04-19T01:43:18.739Z,11.98
2023-04-19T01:45:46.290Z,11.85
2023-04-19T01:48:13.543Z,11.86
2023-04-19T01:50:40.932Z,11.92
2023-04-19T01:53:08.247Z,11.93
2023-04-19T01:55:35.505Z,11.87
2023-04-19T01:58:03.045Z,11.95
2023-04-19T02:00:30.351Z,12.24
2023-04-19T02:02:57.912Z,11.94
2023-04-19T02:05:25.250Z,11.83
2023-04-19T02:07:54.330Z,11.87
2023-04-19T02:10:21.653Z,11.86
2023-04-19T02:12:49.003Z,11.86
2023-04-19T02:15:16.320Z,11.86
2023-04-19T02:17:43.585Z,11.75
2023-04-19T02:20:11.095Z,11.76
2023-04-19T02:22:38.721Z,11.90
2023-04-19T02:25:06.888Z,11.82
2023-04-19T02:27:34.838Z,12.07
2023-04-19T02:30:02.130Z,11.95
2023-04-19T02:32:32.022Z,11.81
2023-04-19T02:34:59.392Z,11.65
2023-04-19T02:37:26.671Z,11.70
2023-04-19T02:39:57.610Z,11.65
2023-04-19T02:42:24.894Z,11.68
2023-04-19T02:44:54.326Z,11.74
2023-04-19T02:47:24.804Z,11.54
2023-04-19T02:49:52.215Z,11.56
2023-04-19T02:52:20.534Z,11.36
2023-04-19T02:54:48.501Z,11.68
2023-04-19T02:57:15.756Z,11.64
2023-04-19T02:59:44.215Z,11.61
2023-04-19T03:02:11.555Z,11.69
2023-04-19T03:04:38.952Z,11.79
2023-04-19T03:07:06.842Z,11.56
2023-04-19T03:09:34.329Z,11.57
2023-04-19T03:12:01.923Z,11.53
2023-04-19T03:14:29.334Z,11.49
2023-04-19T03:16:56.640Z,11.41
2023-04-19T03:19:24.352Z,11.33
2023-04-19T03:21:52.657Z,11.37
2023-04-19T03:24:31.965Z,11.34
2023-04-19T03:27:07.184Z,11.41
2023-04-19T03:29:34.452Z,11.33
2023-04-19T03:32:08.872Z,11.54
2023-04-19T03:34:36.332Z,11.61
2023-04-19T03:37:03.611Z,11.34
2023-04-19T03:39:32.466Z,11.38
2023-04-19T03:42:03.998Z,11.20
2023-04-19T03:44:54.476Z,11.11
2023-04-19T03:47:22.795Z,11.18
2023-04-19T03:49:51.792Z,11.10
2023-04-19T03:52:19.349Z,11.19
2023-04-19T03:54:46.600Z,10.99
2023-04-19T03:57:34.103Z,11.18
2023-04-19T04:00:09.761Z,11.12
2023-04-19T04:02:57.196Z,11.11
2023-04-19T04:05:27.802Z,11.01
2023-04-19T04:07:56.371Z,11.03
2023-04-19T04:10:23.909Z,11.19
2023-04-19T04:12:51.705Z,11.05
2023-04-19T04:15:26.024Z,10.94
2023-04-19T04:17:54.681Z,10.96
2023-04-19T04:20:22.119Z,10.97
2023-04-19T04:22:52.729Z,10.87
2023-04-19T04:25:23.036Z,10.99
2023-04-19T04:27:52.487Z,10.97
2023-04-19T04:30:21.785Z,10.85
2023-04-19T04:32:51.406Z,10.97
2023-04-19T04:35:19.307Z,10.91
2023-04-19T04:37:54.326Z,10.72
2023-04-19T04:40:21.723Z,10.88
2023-04-19T04:42:49.618Z,11.06
2023-04-19T04:45:18.634Z,11.15
2023-04-19T04:47:46.493Z,11.00
2023-04-19T04:50:14.780Z,11.03
2023-04-19T04:52:42.061Z,11.00
2023-04-19T04:55:24.185Z,10.88
2023-04-19T04:57:51.577Z,11.02
2023-04-19T05:00:28.852Z,10.83
2023-04-19T05:03:14.362Z,10.76
2023-04-19T05:05:47.777Z,10.83
2023-04-19T05:08:15.077Z,10.94
2023-04-19T05:10:42.396Z,11.04
2023-04-19T05:13:09.967Z,10.92
2023-04-19T05:15:37.890Z,10.80
2023-04-19T05:18:06.043Z,10.76
2023-04-19T05:20:36.413Z,10.91
2023-04-19T05:23:11.629Z,10.95
2023-04-19T05:25:39.615Z,10.88
2023-04-19T05:28:07.041Z,10.85
2023-04-19T05:30:44.057Z,10.82
2023-04-19T05:33:11.547Z,10.76
2023-04-19T05:35:39.502Z,10.61
2023-04-19T05:38:06.999Z,10.73
2023-04-19T05:40:35.805Z,10.62
2023-04-19T05:43:03.046Z,10.60
2023-04-19T05:45:30.594Z,10.62
2023-04-19T05:47:58.218Z,10.85
2023-04-19T05:50:44.196Z,10.92
2023-04-19T05:53:30.443Z,10.69
2023-04-19T05:55:58.706Z,10.64
2023-04-19T05:58:26.145Z,10.64
2023-04-19T06:00:53.553Z,10.82
2023-04-19T06:03:22.939Z,10.85
2023-04-19T06:05:51.426Z,11.11
2023-04-19T06:08:18.920Z,11.03
2023-04-19T06:10:54.871Z,10.97
2023-04-19T06:13:25.855Z,10.90
2023-04-19T06:15:53.243Z,11.01
2023-04-19T06:18:20.611Z,10.97
2023-04-19T06:20:48.188Z,10.97
2023-04-19T06:23:15.639Z,11.02
2023-04-19T06:25:42.970Z,11.18
2023-04-19T06:28:10.956Z,11.21
2023-04-19T06:30:38.494Z,11.31
2023-04-19T06:33:05.976Z,11.29
2023-04-19T06:35:33.437Z,11.25
2023-04-19T06:38:02.110Z,11.18
2023-04-19T06:40:29.605Z,11.04
2023-04-19T06:42:56.842Z,11.16
2023-04-19T06:45:24.080Z,11.18
2023-04-19T06:47:51.405Z,11.00
2023-04-19T06:50:18.790Z,10.97
2023-04-19T06:52:46.038Z,10.91
2023-04-19T06:55:13.282Z,10.96
2023-04-19T06:57:40.913Z,11.01
2023-04-19T07:00:08.849Z,10.94
2023-04-19T07:02:36.350Z,11.00
2023-04-19T07:05:04.130Z,11.32
2023-04-19T07:07:33.259Z,11.28
2023-04-19T07:10:00.613Z,11.28
2023-04-19T07:12:27.952Z,11.10
2023-04-19T07:14:57.265Z,11.10
2023-04-19T07:17:24.635Z,11.37
2023-04-19T07:19:51.942Z,11.64
2023-04-19T07:22:19.097Z,11.93
2023-04-19T07:24:46.364Z,12.02
2023-04-19T07:27:14.486Z,12.01
2023-04-19T07:29:41.838Z,12.01
2023-04-19T07:32:09.491Z,12.23
2023-04-19T07:34:38.095Z,12.15
2023-04-19T07:37:05.327Z,12.13
2023-04-19T07:39:32.965Z,12.21
2023-04-19T07:42:01.528Z,12.15
2023-04-19T07:44:28.826Z,12.28
2023-04-19T07:46:56.225Z,12.24
2023-04-19T07:49:23.785Z,12.45
2023-04-19T07:51:51.404Z,12.37
2023-04-19T07:54:20.585Z,12.42
2023-04-19T07:56:47.767Z,12.51
2023-04-19T07:59:16.365Z,12.44
2023-04-19T08:01:43.769Z,12.68
2023-04-19T08:04:11.312Z,12.78
2023-04-19T08:06:40.647Z,12.92
2023-04-19T08:09:08.059Z,12.93
2023-04-19T08:11:35.290Z,12.95
2023-04-19T08:14:11.872Z,12.79
2023-04-19T08:19:19.410Z,12.65
2023-04-19T08:21:46.773Z,12.84
2023-04-19T08:24:14.340Z,13.15
2023-04-19T08:26:42.534Z,13.04
2023-04-19T08:29:09.857Z,12.96
2023-04-19T08:31:37.555Z,13.06
2023-04-19T08:34:04.903Z,12.94
2023-04-19T08:36:39.130Z,13.21
2023-04-19T08:39:28.983Z,13.43
2023-04-19T08:42:06.811Z,13.40
2023-04-19T08:44:51.032Z,13.24
2023-04-19T08:47:33.594Z,13.33
2023-04-19T08:52:47.968Z,13.71
2023-04-19T08:55:19.658Z,13.74
2023-04-19T08:57:46.988Z,13.83
2023-04-19T09:00:15.899Z,13.94
2023-04-19T09:02:48.302Z,13.96
2023-04-19T09:05:18.383Z,13.68
2023-04-19T09:07:46.677Z,13.69
2023-04-19T09:10:19.585Z,13.65
2023-04-19T09:13:01.998Z,13.65
2023-04-19T09:15:41.916Z,13.70
2023-04-19T09:18:10.332Z,13.49
2023-04-19T09:20:42.683Z,13.61
2023-04-19T09:23:15.044Z,13.71
2023-04-19T09:28:28.820Z,13.77
2023-04-19T09:31:05.744Z,13.94
2023-04-19T09:33:44.615Z,13.86
2023-04-19T09:36:14.594Z,13.82
2023-04-19T09:38:49.698Z,13.86
2023-04-19T09:41:20.864Z,13.90
2023-04-19T09:46:36.291Z,14.44
2023-04-19T09:49:30.208Z,14.84
2023-04-19T09:52:07.813Z,14.96
2023-04-19T09:54:35.068Z,15.20
2023-04-19T09:57:02.846Z,15.18
2023-04-19T09:59:30.559Z,15.05
2023-04-19T10:01:58.827Z,14.93
2023-04-19T10:04:38.430Z,14.96
2023-04-19T10:12:45.632Z,15.22
2023-04-19T10:15:06.670Z,15.30
2023-04-19T10:17:34.369Z,15.34
2023-04-19T10:20:07.784Z,15.18
2023-04-19T10:22:37.870Z,15.16
2023-04-19T10:25:15.820Z,15.26
2023-04-19T10:27:49.000Z,15.51
2023-04-19T10:30:21.322Z,15.68
2023-04-19T10:33:07.707Z,15.50
2023-04-19T10:35:37.651Z,15.32
2023-04-19T10:38:12.818Z,15.38
2023-04-19T10:40:52.855Z,15.42
2023-04-19T10:43:20.849Z,15.46
2023-04-19T10:45:51.772Z,15.44
2023-04-19T10:48:33.365Z,15.45
2023-04-19T10:51:16.074Z,15.38
2023-04-19T10:53:47.266Z,15.39
2023-04-19T10:56:22.174Z,15.34
2023-04-19T10:59:01.802Z,15.45
2023-04-19T11:01:45.991Z,15.55
2023-04-19T11:04:23.661Z,15.75
2023-04-19T11:06:55.414Z,15.92
2023-04-19T11:09:29.627Z,16.03
2023-04-19T11:12:16.890Z,16.20
2023-04-19T11:15:02.947Z,16.24
2023-04-19T11:17:32.186Z,16.18
2023-04-19T11:20:07.394Z,15.97
2023-04-19T11:22:42.808Z,15.97
2023-04-19T11:25:10.906Z,16.01
2023-04-19T11:27:39.361Z,16.07
2023-04-19T11:30:09.335Z,16.33
2023-04-19T11:32:37.067Z,16.42
2023-04-19T11:35:06.577Z,16.53
2023-04-19T11:37:36.343Z,16.34
2023-04-19T11:40:07.829Z,16.20
2023-04-19T11:42:36.429Z,16.19
2023-04-19T11:45:04.071Z,16.31
2023-04-19T11:47:32.524Z,16.54
2023-04-19T11:50:38.295Z,16.62
2023-04-19T11:53:17.357Z,16.52
2023-04-19T11:55:51.255Z,16.60
2023-04-19T11:58:32.267Z,16.63
2023-04-19T12:01:09.862Z,16.65
2023-04-19T12:03:51.528Z,16.46
2023-04-19T12:06:24.037Z,16.39
2023-04-19T12:08:52.704Z,16.61
2023-04-19T12:11:23.420Z,16.64
2023-04-19T12:14:11.121Z,16.64
2023-04-19T12:16:38.769Z,16.68
2023-04-19T12:19:14.360Z,16.63
2023-04-19T12:21:41.801Z,16.85
2023-04-19T12:24:09.487Z,17.06
2023-04-19T12:26:37.373Z,17.13
2023-04-19T12:29:05.718Z,17.15
2023-04-19T12:31:33.694Z,17.16
2023-04-19T12:34:01.124Z,17.20
2023-04-19T12:36:28.464Z,17.05
2023-04-19T12:38:55.914Z,17.07
2023-04-19T12:41:23.247Z,17.18
2023-04-19T12:43:50.616Z,17.20
2023-04-19T12:46:17.995Z,17.26
2023-04-19T12:48:46.855Z,17.35
2023-04-19T12:51:14.136Z,17.39
2023-04-19T12:53:51.158Z,17.29
2023-04-19T12:56:18.727Z,17.34
2023-04-19T12:58:46.028Z,17.35
2023-04-19T13:01:13.603Z,17.40
2023-04-19T13:03:41.102Z,17.34
2023-04-19T13:06:08.919Z,17.44
2023-04-19T13:08:44.749Z,17.54
2023-04-19T13:11:14.349Z,17.64
2023-04-19T13:13:44.470Z,17.63
2023-04-19T13:16:11.790Z,17.50
2023-04-19T13:18:39.041Z,17.68
2023-04-19T13:21:08.330Z,17.62
2023-04-19T13:23:36.310Z,17.64
2023-04-19T13:26:03.867Z,17.54
2023-04-19T13:28:31.457Z,17.60
2023-04-19T13:30:58.826Z,17.67
2023-04-19T13:33:26.935Z,17.80
2023-04-19T13:35:54.237Z,17.63
2023-04-19T13:38:21.531Z,17.46
2023-04-19T13:40:48.889Z,17.49
2023-04-19T13:43:16.618Z,17.42
2023-04-19T13:45:43.879Z,17.40
2023-04-19T13:48:11.376Z,17.47
2023-04-19T13:50:39.293Z,17.44
2023-04-19T13:53:06.629Z,17.68
2023-04-19T13:55:34.030Z,17.75
2023-04-19T13:58:01.800Z,17.91
2023-04-19T14:00:29.173Z,17.89
2023-04-19T14:02:56.988Z,17.85
2023-04-19T14:05:24.465Z,17.99
2023-04-19T14:07:52.488Z,17.85
2023-04-19T14:10:19.783Z,17.84
2023-04-19T14:12:47.578Z,18.03
2023-04-19T14:15:15.097Z,18.33
2023-04-19T14:17:42.762Z,18.17
2023-04-19T14:20:11.211Z,18.18
2023-04-19T14:22:39.023Z,18.12
2023-04-19T14:25:06.876Z,18.01
2023-04-19T14:27:34.326Z,18.01
2023-04-19T14:30:01.921Z,18.06
2023-04-19T14:32:29.200Z,18.05
2023-04-19T14:34:56.598Z,17.91
2023-04-19T14:37:24.787Z,17.83
2023-04-19T14:39:52.685Z,17.73
2023-04-19T14:42:22.645Z,17.79
2023-04-19T14:44:51.684Z,17.73
2023-04-19T14:47:19.301Z,17.52
2023-04-19T14:49:46.705Z,17.58
2023-04-19T14:52:13.962Z,17.68
2023-04-19T14:54:41.868Z,17.68
2023-04-19T14:57:09.534Z,17.84
2023-04-19T14:59:37.408Z,17.94
2023-04-19T15:02:05.572Z,17.85
2023-04-19T15:04:39.015Z,17.77
2023-04-19T15:07:08.173Z,17.62
2023-04-19T15:09:35.498Z,17.57
2023-04-19T15:12:02.921Z,17.53
2023-04-19T15:14:30.169Z,17.43
2023-04-19T15:16:58.295Z,17.60
2023-04-19T15:19:25.830Z,17.72
2023-04-19T15:21:53.663Z,17.59
2023-04-19T15:24:20.857Z,17.78
2023-04-19T15:26:48.295Z,17.96
2023-04-19T15:29:15.809Z,17.78
2023-04-19T15:31:43.455Z,17.73
2023-04-19T15:34:10.707Z,17.49
2023-04-19T15:36:38.103Z,17.63
2023-04-19T15:39:05.460Z,17.43
2023-04-19T15:41:32.681Z,17.40
2023-04-19T15:43:59.917Z,17.40
2023-04-19T15:46:27.310Z,17.60
2023-04-19T15:48:54.737Z,17.68
2023-04-19T15:51:24.123Z,17.39
2023-04-19T15:53:52.129Z,17.35
2023-04-19T15:56:20.350Z,17.24
2023-04-19T15:58:47.676Z,17.32
2023-04-19T16:01:16.411Z,17.36
2023-04-19T16:03:45.974Z,17.27
2023-04-19T16:06:13.787Z,17.19
2023-04-19T16:08:41.130Z,17.09
2023-04-19T16:11:08.665Z,17.28
2023-04-19T16:13:36.050Z,17.21
2023-04-19T16:16:03.392Z,17.24
2023-04-19T16:18:30.857Z,17.08
2023-04-19T16:20:58.161Z,16.97
2023-04-19T16:23:25.675Z,16.89
2023-04-19T16:25:54.264Z,17.00
2023-04-19T16:28:23.594Z,16.77
2023-04-19T16:30:50.954Z,16.92
2023-04-19T16:33:18.398Z,16.97
2023-04-19T16:35:45.827Z,16.95
2023-04-19T16:38:13.119Z,16.81
2023-04-19T16:40:40.379Z,16.79
2023-04-19T16:43:07.630Z,16.84
2023-04-19T16:45:34.888Z,16.96
2023-04-19T16:48:02.400Z,16.96
2023-04-19T16:50:29.689Z,16.74
2023-04-19T16:52:56.897Z,16.48
2023-04-19T16:55:24.304Z,16.55
2023-04-19T16:57:53.671Z,16.82
2023-04-19T17:00:21.967Z,16.77
2023-04-19T17:02:49.482Z,16.72
2023-04-19T17:05:17.201Z,16.63
2023-04-19T17:07:44.572Z,16.60
2023-04-19T17:10:12.609Z,16.59
2023-04-19T17:12:40.162Z,16.50
2023-04-19T17:15:07.966Z,16.67
2023-04-19T17:17:35.559Z,16.69
2023-04-19T17:20:04.296Z,16.71
2023-04-19T17:22:31.523Z,16.48
2023-04-19T17:24:58.977Z,16.47
2023-04-19T17:27:28.871Z,16.42
2023-04-19T17:29:56.037Z,16.27
2023-04-19T17:32:23.384Z,16.34
2023-04-19T17:34:50.806Z,16.38
2023-04-19T17:37:18.110Z,16.17
2023-04-19T17:39:45.343Z,16.04
2023-04-19T17:42:12.547Z,16.10
2023-04-19T17:44:39.865Z,15.89
2023-04-19T17:47:07.319Z,15.97
2023-04-19T17:49:34.640Z,16.01
2023-04-19T17:52:02.298Z,16.00
2023-04-19T17:54:29.601Z,16.00
2023-04-19T17:56:59.451Z,15.98
2023-04-19T17:59:26.851Z,16.02
2023-04-19T18:01:54.308Z,15.99
2023-04-19T18:04:21.885Z,15.89
2023-04-19T18:06:49.803Z,15.97
2023-04-19T18:09:18.372Z,15.96
2023-04-19T18:11:46.177Z,15.90
2023-04-19T18:14:15.285Z,16.14
2023-04-19T18:16:42.777Z,16.03
2023-04-19T18:19:10.297Z,16.03
2023-04-19T18:21:37.616Z,16.08
2023-04-19T18:24:05.385Z,15.81
2023-04-19T18:26:40.612Z,15.66
2023-04-19T18:29:12.755Z,15.70
2023-04-19T18:31:41.692Z,15.79
2023-04-19T18:34:11.234Z,15.74
2023-04-19T18:36:39.827Z,15.72
2023-04-19T18:39:07.224Z,15.99
2023-04-19T18:41:35.509Z,15.84
2023-04-19T18:46:33.414Z,15.85
2023-04-19T18:49:01.136Z,16.02
2023-04-19T18:51:28.960Z,15.93
2023-04-19T18:53:56.264Z,16.12
2023-04-19T18:56:54.295Z,16.01
2023-04-19T18:59:11.266Z,16.00
2023-04-19T19:01:38.872Z,16.03
2023-04-19T19:06:36.889Z,16.06
2023-04-19T19:09:04.067Z,16.02
2023-04-19T19:14:03.049Z,15.99
2023-04-19T19:16:31.293Z,15.81
2023-04-19T19:18:58.619Z,15.90
2023-04-19T19:21:27.439Z,15.83
2023-04-19T19:23:57.711Z,15.99
2023-04-19T19:26:26.179Z,15.86
2023-04-19T19:28:53.650Z,15.91
2023-04-19T19:31:21.348Z,15.88
2023-04-19T19:33:57.050Z,16.02
2023-04-19T19:36:36.450Z,15.98
2023-04-19T19:39:03.937Z,16.02
2023-04-19T19:42:03.431Z,16.07
2023-04-19T19:44:18.606Z,15.64
2023-04-19T19:46:46.404Z,15.86
2023-04-19T19:49:14.068Z,15.90
2023-04-19T19:51:53.312Z,15.65
2023-04-19T19:54:24.740Z,15.90
2023-04-19T19:59:29.178Z,16.00
2023-04-19T20:01:58.093Z,15.90
2023-04-19T20:04:25.945Z,15.81
2023-04-19T20:09:23.477Z,15.73
2023-04-19T20:11:50.864Z,15.70
2023-04-19T20:14:18.370Z,15.67
2023-04-19T20:16:45.880Z,15.58
2023-04-19T20:19:14.854Z,15.57
2023-04-19T20:21:42.405Z,15.65
2023-04-19T20:24:10.153Z,15.81
2023-04-19T20:26:38.885Z,15.89
2023-04-19T20:29:06.493Z,15.89
2023-04-19T20:31:33.762Z,15.71
2023-04-19T20:34:01.565Z,15.58
2023-04-19T20:36:31.879Z,15.74
2023-04-19T20:39:01.732Z,15.71
2023-04-19T20:41:29.248Z,15.53
2023-04-19T20:43:57.265Z,15.81
2023-04-19T20:46:24.816Z,15.67
2023-04-19T20:48:52.154Z,15.54
2023-04-19T20:51:19.466Z,15.43
2023-04-19T20:53:46.750Z,15.21
2023-04-19T20:56:14.077Z,14.97
2023-04-19T20:58:43.907Z,14.88
2023-04-19T21:01:14.342Z,14.90
2023-04-19T21:03:41.881Z,14.87
2023-04-19T21:06:09.406Z,14.84
2023-04-19T21:08:36.848Z,14.83
2023-04-19T21:11:04.252Z,14.96
2023-04-19T21:13:32.426Z,14.91
2023-04-19T21:15:59.769Z,14.74
2023-04-19T21:18:30.094Z,14.79
2023-04-19T21:20:57.804Z,14.87
2023-04-19T21:23:25.191Z,14.86
2023-04-19T21:25:52.481Z,14.59
2023-04-19T21:28:20.379Z,14.59
2023-04-19T21:30:47.774Z,14.47
2023-04-19T21:33:18.092Z,14.45
2023-04-19T21:35:45.440Z,14.55
2023-04-19T21:38:12.868Z,14.54
2023-04-19T21:40:40.210Z,14.37
2023-04-19T21:43:07.507Z,14.29
2023-04-19T21:45:35.296Z,14.34
2023-04-19T21:48:02.729Z,14.28
2023-04-19T21:50:30.425Z,14.20
2023-04-19T21:52:57.687Z,14.16
2023-04-19T21:55:25.133Z,14.13
2023-04-19T21:57:52.452Z,14.07
2023-04-19T22:00:19.941Z,13.94
2023-04-19T22:02:47.285Z,14.02
2023-04-19T22:05:14.958Z,14.17
2023-04-19T22:07:42.719Z,13.96
2023-04-19T22:10:10.150Z,13.65
2023-04-19T22:12:45.152Z,13.57
2023-04-19T22:15:18.782Z,13.51
2023-04-19T22:17:46.134Z,13.57
2023-04-19T22:20:14.807Z,13.56
2023-04-19T22:22:42.053Z,13.66
2023-04-19T22:25:09.639Z,13.58
2023-04-19T22:27:36.957Z,13.48
2023-04-19T22:30:04.763Z,13.50
2023-04-19T22:32:32.163Z,13.61
2023-04-19T22:34:59.464Z,13.39
2023-04-19T22:37:26.745Z,13.30
2023-04-19T22:39:54.102Z,13.39
2023-04-19T22:42:21.758Z,13.42
2023-04-19T22:44:48.998Z,13.38
2023-04-19T22:47:16.987Z,13.37
2023-04-19T22:49:45.102Z,13.48
2023-04-19T22:52:12.779Z,13.32
2023-04-19T22:54:40.032Z,13.24
2023-04-19T22:57:07.313Z,13.18
2023-04-19T22:59:34.562Z,13.30
2023-04-19T23:02:01.863Z,13.06
2023-04-19T23:04:33.890Z,13.07
2023-04-19T23:07:01.172Z,13.04
2023-04-19T23:09:29.821Z,12.93
2023-04-19T23:11:58.721Z,13.06
2023-04-19T23:14:25.989Z,13.00
2023-04-19T23:16:57.136Z,13.06
2023-04-19T23:19:25.354Z,12.88
2023-04-19T23:21:52.767Z,13.24
2023-04-19T23:24:20.114Z,13.05
2023-04-19T23:26:47.428Z,12.63
2023-04-19T23:29:18.604Z,12.67
2023-04-19T23:31:46.149Z,12.70
2023-04-19T23:34:14.126Z,12.82
2023-04-19T23:36:41.516Z,12.71
2023-04-19T23:39:08.783Z,12.74
2023-04-19T23:41:36.394Z,12.63
2023-04-19T23:44:03.642Z,12.56
2023-04-19T23:46:31.049Z,12.48
2023-04-19T23:48:58.277Z,12.45
2023-04-19T23:51:25.522Z,12.64
2023-04-19T23:53:52.810Z,12.53
2023-04-19T23:56:20.037Z,12.24
2023-04-19T23:58:47.226Z,12.15
